createdAt,value
2023-04-18T00:00:22.052Z,40.5
2023-04-18T00:05:52.698Z,40.5
2023-04-18T00:11:23.170Z,40.5
2023-04-18T00:16:53.657Z,40.5
2023-04-18T00:22:24.250Z,40.5
2023-04-18T00:27:54.879Z,40.5
2023-04-18T00:33:25.353Z,40.5
2023-04-18T00:38:54.845Z,40.5
2023-04-18T00:44:25.326Z,40.5
2023-04-18T00:49:55.809Z,40.5
2023-04-18T00:55:25.283Z,40.5
2023-04-18T01:00:55.836Z,40.5
2023-04-18T01:11:55.744Z,40.5
2023-04-18T01:17:26.258Z,40.5
2023-04-18T01:22:56.794Z,40.5
2023-04-18T01:28:27.297Z,40.5
2023-04-18T01:33:57.773Z,40.5
2023-04-18T01:39:28.416Z,40.5
2023-04-18T01:44:58.898Z,40.5
2023-04-18T01:50:29.404Z,40.5
2023-04-18T01:55:58.876Z,40.5
2023-04-18T02:01:29.321Z,40.5
2023-04-18T02:06:59.924Z,40.5
2023-04-18T02:12:30.432Z,40.5
2023-04-18T02:18:00.912Z,40.5
2023-04-18T02:23:30.386Z,40.5
2023-04-18T02:29:00.858Z,40.5
2023-04-18T02:34:31.472Z,40.5
2023-04-18T02:40:01.977Z,40.5
2023-04-18T02:45:31.467Z,40.5
2023-04-18T02:51:01.998Z,40.5
2023-04-18T02:56:32.420Z,40.5
2023-04-18T03:02:01.943Z,40.5
2023-04-18T03:07:32.389Z,40.5
2023-04-18T03:13:02.894Z,40.5
2023-04-18T03:18:33.467Z,40.5
2023-04-18T03:24:03.932Z,40.5
2023-04-18T03:29:34.416Z,40.5
2023-04-18T03:35:05.054Z,40.5
2023-04-18T03:40:35.511Z,40.5
2023-04-18T03:46:06.075Z,40.5
2023-04-18T03:51:36.556Z,40.5
2023-04-18T03:57:07.060Z,40.5
2023-04-18T04:02:37.757Z,40.5
2023-04-18T04:08:08.135Z,40.5
2023-04-18T04:13:38.621Z,40.5
2023-04-18T04:19:09.210Z,40.5
2023-04-18T04:24:39.703Z,40
2023-04-18T04:30:12.011Z,40.5
2023-04-18T04:35:39.659Z,40
2023-04-18T04:41:10.145Z,40
2023-04-18T04:46:39.629Z,40
2023-04-18T04:52:10.117Z,40
2023-04-18T04:57:40.597Z,40
2023-04-18T05:03:10.256Z,40
2023-04-18T05:08:40.544Z,40
2023-04-18T05:15:17.155Z,40
2023-04-18T05:20:47.723Z,40
2023-04-18T05:26:18.225Z,40
2023-04-18T05:31:48.726Z,40
2023-04-18T05:37:18.349Z,40
2023-04-18T05:42:48.817Z,40
2023-04-18T05:48:19.345Z,40
2023-04-18T05:53:49.879Z,40
2023-04-18T05:59:20.384Z,40
2023-04-18T06:04:51.120Z,40
2023-04-18T06:10:21.451Z,40
2023-04-18T06:15:51.973Z,40
2023-04-18T06:21:22.545Z,40
2023-04-18T06:26:52.035Z,39.5
2023-04-18T06:32:22.522Z,39.5
2023-04-18T06:37:52.986Z,39.5
2023-04-18T06:43:23.562Z,39.5
2023-04-18T06:48:54.055Z,39.5
2023-04-18T06:54:24.528Z,39.5
2023-04-18T06:59:54.045Z,39.5
2023-04-18T07:05:24.509Z,39.5
2023-04-18T07:10:55.079Z,39.5
2023-04-18T07:16:25.629Z,39.5
2023-04-18T07:21:56.083Z,39.5
2023-04-18T07:27:26.630Z,39.5
2023-04-18T07:32:57.232Z,39.5
2023-04-18T07:38:27.785Z,39.5
2023-04-18T07:43:58.268Z,39.5
2023-04-18T07:49:28.776Z,39.5
2023-04-18T07:54:58.261Z,39.5
2023-04-18T08:05:59.214Z,39.5
2023-04-18T08:11:29.912Z,39.5
2023-04-18T08:17:00.397Z,39.5
2023-04-18T08:22:29.875Z,39.5
2023-04-18T08:28:00.331Z,39.5
2023-04-18T08:33:30.810Z,39
2023-04-18T08:39:01.415Z,39
2023-04-18T08:44:31.885Z,39
2023-04-18T08:50:02.423Z,39.5
2023-04-18T08:55:33.075Z,39
2023-04-18T09:01:03.647Z,39
2023-04-18T09:06:34.015Z,39
2023-04-18T09:12:04.613Z,39
2023-04-18T09:17:35.114Z,39
2023-04-18T09:23:05.569Z,39
2023-04-18T09:28:36.155Z,39
2023-04-18T09:34:06.643Z,39
2023-04-18T09:39:36.135Z,38.5
2023-04-18T09:45:06.616Z,38.5
2023-04-18T09:50:37.096Z,38.5
2023-04-18T09:56:07.669Z,38.5
2023-04-18T10:07:08.709Z,38.5
2023-04-18T10:18:09.860Z,38.5
2023-04-18T10:23:40.403Z,38.5
2023-04-18T10:29:10.887Z,38.5
2023-04-18T10:34:41.476Z,38.5
2023-04-18T10:40:12.097Z,38.5
2023-04-18T10:45:42.550Z,38.5
2023-04-18T10:51:13.044Z,38.5
2023-04-18T10:56:43.648Z,38.5
2023-04-18T11:02:14.153Z,38.5
2023-04-18T11:07:44.606Z,38.5
2023-04-18T11:13:15.187Z,38.5
2023-04-18T11:18:45.685Z,38.5
2023-04-18T11:24:16.280Z,38.5
2023-04-18T11:29:46.764Z,38.5
2023-04-18T11:35:17.271Z,38.5
2023-04-18T11:40:47.885Z,38.5
2023-04-18T11:46:18.405Z,38.5
2023-04-18T11:51:48.824Z,38.5
2023-04-18T11:57:19.414Z,38.5
2023-04-18T12:03:56.161Z,38.5
2023-04-18T12:09:25.609Z,38.5
2023-04-18T12:14:56.080Z,38.5
2023-04-18T12:20:25.949Z,38.5
2023-04-18T12:25:56.297Z,38.5
2023-04-18T12:31:26.799Z,38.5
2023-04-18T12:36:56.262Z,38.5
2023-04-18T12:42:26.761Z,38.5
2023-04-18T12:47:56.301Z,38.5
2023-04-18T12:53:26.724Z,38.5
2023-04-18T12:58:57.183Z,38
2023-04-18T13:04:27.998Z,38
2023-04-18T13:09:58.275Z,38
2023-04-18T13:15:28.708Z,38
2023-04-18T13:20:59.429Z,38
2023-04-18T13:26:29.956Z,38
2023-04-18T13:32:00.462Z,38
2023-04-18T13:37:31.008Z,38
2023-04-18T13:43:01.481Z,38
2023-04-18T13:48:30.974Z,38
2023-04-18T13:54:00.451Z,38
2023-04-18T13:59:30.946Z,38
2023-04-18T14:05:01.791Z,38
2023-04-18T14:10:32.013Z,38
2023-04-18T14:16:02.576Z,38
2023-04-18T14:21:33.150Z,38
2023-04-18T14:27:03.620Z,38
2023-04-18T14:32:34.117Z,38
2023-04-18T14:38:04.682Z,38
2023-04-18T14:43:35.170Z,38
2023-04-18T14:49:04.660Z,38
2023-04-18T14:54:35.137Z,38
2023-04-18T15:00:05.810Z,38
2023-04-18T15:05:36.318Z,38
2023-04-18T15:11:06.839Z,38
2023-04-18T15:16:37.300Z,38
2023-04-18T15:22:07.854Z,38
2023-04-18T15:27:38.349Z,38
2023-04-18T15:33:08.845Z,38
2023-04-18T15:38:39.394Z,38
2023-04-18T15:44:09.864Z,38
2023-04-18T15:49:40.346Z,38
2023-04-18T15:55:09.829Z,38
2023-04-18T16:00:40.306Z,38
2023-04-18T16:11:40.268Z,38
2023-04-18T16:17:10.743Z,36.5
2023-04-18T16:22:41.324Z,38
2023-04-18T16:28:11.775Z,38
2023-04-18T16:33:42.467Z,36.5
2023-04-18T16:39:12.901Z,37.5
2023-04-18T16:44:43.375Z,38
2023-04-18T16:50:14.002Z,38
2023-04-18T16:55:44.551Z,38
2023-04-18T17:01:15.055Z,38
2023-04-18T17:06:45.588Z,38
2023-04-18T17:12:16.079Z,38
2023-04-18T17:17:46.683Z,38
2023-04-18T17:23:17.138Z,38
2023-04-18T17:28:47.632Z,38
2023-04-18T17:34:18.237Z,38
2023-04-18T17:39:48.711Z,38
2023-04-18T17:45:19.196Z,38
2023-04-18T17:50:48.673Z,38
2023-04-18T17:56:19.158Z,38
2023-04-18T18:01:49.827Z,38
2023-04-18T18:07:20.204Z,38
2023-04-18T18:12:50.695Z,38.5
2023-04-18T18:18:21.317Z,38.5
2023-04-18T18:23:51.779Z,38.5
2023-04-18T18:29:22.270Z,38.5
2023-04-18T18:34:52.988Z,38.5
2023-04-18T18:40:23.458Z,38.5
2023-04-18T18:45:52.987Z,38.5
2023-04-18T18:51:23.430Z,38.5
2023-04-18T18:56:53.917Z,38.5
2023-04-18T19:02:23.559Z,38.5
2023-04-18T19:07:53.887Z,38.5
2023-04-18T19:13:24.367Z,38.5
2023-04-18T19:18:54.926Z,38.5
2023-04-18T19:24:25.412Z,38.5
2023-04-18T19:29:55.874Z,38.5
2023-04-18T19:35:26.613Z,38.5
2023-04-18T19:40:57.091Z,38.5
2023-04-18T19:46:27.572Z,38.5
2023-04-18T19:51:58.119Z,38.5
2023-04-18T19:57:28.593Z,38.5
2023-04-18T20:02:59.211Z,38.5
2023-04-18T20:08:29.698Z,38.5
2023-04-18T20:14:00.157Z,38.5
2023-04-18T20:19:29.803Z,38.5
2023-04-18T20:25:00.132Z,39
2023-04-18T20:30:30.631Z,38.5
2023-04-18T20:36:01.189Z,39
2023-04-18T20:41:31.691Z,39
2023-04-18T20:47:02.195Z,39
2023-04-18T20:52:32.795Z,39
2023-04-18T20:58:03.221Z,39
2023-04-18T21:03:33.799Z,39
2023-04-18T21:09:03.213Z,39
2023-04-18T21:14:32.713Z,39
2023-04-18T21:20:03.200Z,39
2023-04-18T21:25:33.675Z,39
2023-04-18T21:31:04.330Z,39
2023-04-18T21:36:34.756Z,39
2023-04-18T21:42:05.357Z,39
2023-04-18T21:47:35.931Z,39
2023-04-18T21:53:06.401Z,39
2023-04-18T21:58:36.872Z,39
2023-04-18T22:04:07.651Z,39
2023-04-18T22:09:38.021Z,39
2023-04-18T22:15:08.619Z,39
2023-04-18T22:20:39.104Z,39
2023-04-18T22:26:09.579Z,39
2023-04-18T22:31:40.067Z,39
2023-04-18T22:37:10.640Z,39
2023-04-18T22:42:41.133Z,39
2023-04-18T22:48:11.726Z,39
2023-04-18T22:53:42.204Z,39.5
2023-04-18T22:59:12.672Z,39.5
2023-04-18T23:04:42.313Z,39.5
2023-04-18T23:10:12.681Z,39.5
2023-04-18T23:15:43.252Z,39.5
2023-04-18T23:21:12.636Z,39.5
2023-04-18T23:26:43.148Z,39.5
2023-04-18T23:32:13.694Z,39.5
2023-04-18T23:37:44.297Z,39.5
2023-04-18T23:43:14.706Z,39.5
2023-04-18T23:48:45.312Z,39.5
2023-04-18T23:54:16.012Z,39.5
2023-04-18T23:59:46.264Z,39.5
